sensor_id;sensor_type;location;lat;lon;timestamp;P1;durP1;ratioP1;P2;durP2;ratioP2
16320;SDS011;8269;50.990;4.494;2023-06-22T00:01:49;7.90;;;5.57;;
16320;SDS011;8269;50.990;4.494;2023-06-22T00:04:17;7.82;;;5.43;;
16320;SDS011;8269;50.990;4.494;2023-06-22T00:06:42;8.60;;;5.75;;
16320;SDS011;8269;50.990;4.494;2023-06-22T00:09:08;8.30;;;5.47;;
16320;SDS011;8269;50.990;4.494;2023-06-22T00:11:35;7.80;;;5.35;;
16320;SDS011;8269;50.990;4.494;2023-06-22T00:14:04;8.52;;;5.22;;
16320;SDS011;8269;50.990;4.494;2023-06-22T00:16:31;7.55;;;4.85;;
16320;SDS011;8269;50.990;4.494;2023-06-22T00:18:58;7.28;;;5.45;;
16320;SDS011;8269;50.990;4.494;2023-06-22T00:21:28;6.20;;;4.78;;
16320;SDS011;8269;50.990;4.494;2023-06-22T00:23:55;6.85;;;4.72;;
16320;SDS011;8269;50.990;4.494;2023-06-22T00:26:22;9.43;;;5.05;;
16320;SDS011;8269;50.990;4.494;2023-06-22T00:28:49;7.70;;;4.95;;
16320;SDS011;8269;50.990;4.494;2023-06-22T00:31:15;9.20;;;5.10;;
16320;SDS011;8269;50.990;4.494;2023-06-22T00:33:40;7.10;;;4.72;;
16320;SDS011;8269;50.990;4.494;2023-06-22T00:36:06;6.00;;;4.32;;
16320;SDS011;8269;50.990;4.494;2023-06-22T00:38:38;7.43;;;4.65;;
16320;SDS011;8269;50.990;4.494;2023-06-22T00:41:05;6.38;;;4.80;;
16320;SDS011;8269;50.990;4.494;2023-06-22T00:43:30;8.93;;;4.95;;
16320;SDS011;8269;50.990;4.494;2023-06-22T00:45:56;7.63;;;5.10;;
16320;SDS011;8269;50.990;4.494;2023-06-22T00:48:22;6.22;;;4.82;;
16320;SDS011;8269;50.990;4.494;2023-06-22T00:50:47;7.60;;;4.28;;
16320;SDS011;8269;50.990;4.494;2023-06-22T00:53:15;7.22;;;4.63;;
16320;SDS011;8269;50.990;4.494;2023-06-22T00:55:42;8.07;;;4.55;;
16320;SDS011;8269;50.990;4.494;2023-06-22T00:58:10;6.70;;;4.15;;
16320;SDS011;8269;50.990;4.494;2023-06-22T01:00:37;7.68;;;5.00;;
16320;SDS011;8269;50.990;4.494;2023-06-22T01:03:04;7.38;;;4.65;;
16320;SDS011;8269;50.990;4.494;2023-06-22T01:05:33;6.57;;;4.45;;
16320;SDS011;8269;50.990;4.494;2023-06-22T01:13:38;7.80;;;4.72;;
16320;SDS011;8269;50.990;4.494;2023-06-22T01:16:35;7.13;;;4.63;;
16320;SDS011;8269;50.990;4.494;2023-06-22T01:22:03;7.05;;;4.47;;
16320;SDS011;8269;50.990;4.494;2023-06-22T01:24:41;6.72;;;4.28;;
16320;SDS011;8269;50.990;4.494;2023-06-22T01:29:58;7.07;;;5.00;;
16320;SDS011;8269;50.990;4.494;2023-06-22T01:32:32;7.55;;;4.35;;
16320;SDS011;8269;50.990;4.494;2023-06-22T01:35:00;8.57;;;4.38;;
16320;SDS011;8269;50.990;4.494;2023-06-22T01:37:28;6.55;;;4.55;;
16320;SDS011;8269;50.990;4.494;2023-06-22T01:39:57;6.32;;;4.75;;
16320;SDS011;8269;50.990;4.494;2023-06-22T01:42:24;7.05;;;4.70;;
16320;SDS011;8269;50.990;4.494;2023-06-22T01:44:51;5.85;;;4.50;;
16320;SDS011;8269;50.990;4.494;2023-06-22T01:47:18;7.13;;;4.68;;
16320;SDS011;8269;50.990;4.494;2023-06-22T01:49:44;7.50;;;4.60;;
16320;SDS011;8269;50.990;4.494;2023-06-22T01:52:11;6.82;;;5.30;;
16320;SDS011;8269;50.990;4.494;2023-06-22T01:54:37;6.40;;;4.55;;
16320;SDS011;8269;50.990;4.494;2023-06-22T01:57:03;6.47;;;4.82;;
16320;SDS011;8269;50.990;4.494;2023-06-22T01:59:53;7.63;;;4.85;;
16320;SDS011;8269;50.990;4.494;2023-06-22T02:02:29;7.28;;;5.10;;
16320;SDS011;8269;50.990;4.494;2023-06-22T02:05:07;6.93;;;4.90;;
16320;SDS011;8269;50.990;4.494;2023-06-22T02:07:41;7.47;;;5.60;;
16320;SDS011;8269;50.990;4.494;2023-06-22T02:10:12;7.53;;;5.68;;
16320;SDS011;8269;50.990;4.494;2023-06-22T02:12:41;8.18;;;4.93;;
16320;SDS011;8269;50.990;4.494;2023-06-22T02:15:09;7.13;;;5.88;;
16320;SDS011;8269;50.990;4.494;2023-06-22T02:17:37;8.25;;;5.22;;
16320;SDS011;8269;50.990;4.494;2023-06-22T02:20:03;8.00;;;5.60;;
16320;SDS011;8269;50.990;4.494;2023-06-22T02:22:33;9.15;;;5.38;;
16320;SDS011;8269;50.990;4.494;2023-06-22T02:24:58;7.32;;;5.55;;
16320;SDS011;8269;50.990;4.494;2023-06-22T02:27:31;9.88;;;6.10;;
16320;SDS011;8269;50.990;4.494;2023-06-22T02:29:57;8.48;;;6.45;;
16320;SDS011;8269;50.990;4.494;2023-06-22T02:32:23;7.93;;;5.82;;
16320;SDS011;8269;50.990;4.494;2023-06-22T02:34:52;9.85;;;6.13;;
16320;SDS011;8269;50.990;4.494;2023-06-22T02:37:18;10.10;;;5.75;;
16320;SDS011;8269;50.990;4.494;2023-06-22T02:39:43;10.55;;;6.60;;
16320;SDS011;8269;50.990;4.494;2023-06-22T02:42:09;9.15;;;6.07;;
16320;SDS011;8269;50.990;4.494;2023-06-22T02:44:38;10.57;;;6.20;;
16320;SDS011;8269;50.990;4.494;2023-06-22T02:47:03;9.80;;;6.60;;
16320;SDS011;8269;50.990;4.494;2023-06-22T02:49:29;9.40;;;6.75;;
16320;SDS011;8269;50.990;4.494;2023-06-22T02:51:55;8.73;;;6.65;;
16320;SDS011;8269;50.990;4.494;2023-06-22T02:54:22;9.43;;;6.50;;
16320;SDS011;8269;50.990;4.494;2023-06-22T02:56:47;9.52;;;6.65;;
16320;SDS011;8269;50.990;4.494;2023-06-22T02:59:13;9.05;;;6.65;;
16320;SDS011;8269;50.990;4.494;2023-06-22T03:01:39;10.55;;;6.80;;
16320;SDS011;8269;50.990;4.494;2023-06-22T03:04:08;10.32;;;6.55;;
16320;SDS011;8269;50.990;4.494;2023-06-22T03:06:34;10.25;;;6.72;;
16320;SDS011;8269;50.990;4.494;2023-06-22T03:09:04;11.85;;;7.25;;
16320;SDS011;8269;50.990;4.494;2023-06-22T03:11:30;10.05;;;7.18;;
16320;SDS011;8269;50.990;4.494;2023-06-22T03:13:57;11.82;;;7.80;;
16320;SDS011;8269;50.990;4.494;2023-06-22T03:16:23;10.55;;;7.25;;
16320;SDS011;8269;50.990;4.494;2023-06-22T03:18:50;11.35;;;7.25;;
16320;SDS011;8269;50.990;4.494;2023-06-22T03:21:16;11.07;;;7.63;;
16320;SDS011;8269;50.990;4.494;2023-06-22T03:23:42;8.77;;;7.32;;
16320;SDS011;8269;50.990;4.494;2023-06-22T03:26:08;10.27;;;7.88;;
16320;SDS011;8269;50.990;4.494;2023-06-22T03:28:34;11.70;;;8.10;;
16320;SDS011;8269;50.990;4.494;2023-06-22T03:31:00;11.35;;;8.30;;
16320;SDS011;8269;50.990;4.494;2023-06-22T03:33:26;13.80;;;9.50;;
16320;SDS011;8269;50.990;4.494;2023-06-22T03:35:51;13.65;;;8.95;;
16320;SDS011;8269;50.990;4.494;2023-06-22T03:38:18;11.95;;;8.63;;
16320;SDS011;8269;50.990;4.494;2023-06-22T03:40:44;10.65;;;8.20;;
16320;SDS011;8269;50.990;4.494;2023-06-22T03:43:10;11.32;;;8.75;;
16320;SDS011;8269;50.990;4.494;2023-06-22T03:45:35;12.05;;;8.98;;
16320;SDS011;8269;50.990;4.494;2023-06-22T03:48:01;13.38;;;9.52;;
16320;SDS011;8269;50.990;4.494;2023-06-22T03:50:27;12.70;;;9.18;;
16320;SDS011;8269;50.990;4.494;2023-06-22T03:52:53;12.27;;;9.52;;
16320;SDS011;8269;50.990;4.494;2023-06-22T03:55:21;10.93;;;8.95;;
16320;SDS011;8269;50.990;4.494;2023-06-22T03:57:47;12.88;;;9.20;;
16320;SDS011;8269;50.990;4.494;2023-06-22T04:00:13;12.25;;;9.88;;
16320;SDS011;8269;50.990;4.494;2023-06-22T04:02:40;15.68;;;10.25;;
16320;SDS011;8269;50.990;4.494;2023-06-22T04:05:08;13.35;;;9.80;;
16320;SDS011;8269;50.990;4.494;2023-06-22T04:07:34;14.27;;;10.45;;
16320;SDS011;8269;50.990;4.494;2023-06-22T04:10:02;15.20;;;11.02;;
16320;SDS011;8269;50.990;4.494;2023-06-22T04:12:28;15.13;;;10.85;;
16320;SDS011;8269;50.990;4.494;2023-06-22T04:14:54;12.38;;;9.55;;
16320;SDS011;8269;50.990;4.494;2023-06-22T04:17:19;15.52;;;10.30;;
16320;SDS011;8269;50.990;4.494;2023-06-22T04:19:47;15.13;;;10.60;;
16320;SDS011;8269;50.990;4.494;2023-06-22T04:22:13;14.43;;;10.65;;
16320;SDS011;8269;50.990;4.494;2023-06-22T04:24:38;13.35;;;10.82;;
16320;SDS011;8269;50.990;4.494;2023-06-22T04:27:04;15.32;;;11.50;;
16320;SDS011;8269;50.990;4.494;2023-06-22T04:29:30;15.57;;;10.98;;
16320;SDS011;8269;50.990;4.494;2023-06-22T04:31:56;14.68;;;11.68;;
16320;SDS011;8269;50.990;4.494;2023-06-22T04:34:24;19.13;;;11.23;;
16320;SDS011;8269;50.990;4.494;2023-06-22T04:36:52;14.05;;;10.43;;
16320;SDS011;8269;50.990;4.494;2023-06-22T04:39:18;13.63;;;10.88;;
16320;SDS011;8269;50.990;4.494;2023-06-22T04:41:44;16.08;;;12.32;;
16320;SDS011;8269;50.990;4.494;2023-06-22T04:44:11;15.82;;;11.68;;
16320;SDS011;8269;50.990;4.494;2023-06-22T04:46:37;13.52;;;11.63;;
16320;SDS011;8269;50.990;4.494;2023-06-22T04:49:04;14.27;;;11.50;;
16320;SDS011;8269;50.990;4.494;2023-06-22T04:51:39;13.43;;;11.25;;
16320;SDS011;8269;50.990;4.494;2023-06-22T04:54:06;14.57;;;11.40;;
16320;SDS011;8269;50.990;4.494;2023-06-22T04:56:32;15.50;;;11.75;;
16320;SDS011;8269;50.990;4.494;2023-06-22T04:58:58;16.30;;;11.75;;
16320;SDS011;8269;50.990;4.494;2023-06-22T05:01:24;16.05;;;12.00;;
16320;SDS011;8269;50.990;4.494;2023-06-22T05:03:50;15.63;;;12.63;;
16320;SDS011;8269;50.990;4.494;2023-06-22T05:06:21;16.55;;;11.85;;
16320;SDS011;8269;50.990;4.494;2023-06-22T05:08:49;15.52;;;12.07;;
16320;SDS011;8269;50.990;4.494;2023-06-22T05:11:17;15.63;;;11.52;;
16320;SDS011;8269;50.990;4.494;2023-06-22T05:13:42;15.88;;;12.07;;
16320;SDS011;8269;50.990;4.494;2023-06-22T05:16:08;18.23;;;12.65;;
16320;SDS011;8269;50.990;4.494;2023-06-22T05:18:35;18.70;;;14.02;;
16320;SDS011;8269;50.990;4.494;2023-06-22T05:21:01;17.10;;;13.25;;
16320;SDS011;8269;50.990;4.494;2023-06-22T05:23:28;19.23;;;13.23;;
16320;SDS011;8269;50.990;4.494;2023-06-22T05:25:53;19.08;;;13.55;;
16320;SDS011;8269;50.990;4.494;2023-06-22T05:28:22;15.82;;;13.18;;
16320;SDS011;8269;50.990;4.494;2023-06-22T05:30:49;22.48;;;13.82;;
16320;SDS011;8269;50.990;4.494;2023-06-22T05:33:15;20.67;;;13.70;;
16320;SDS011;8269;50.990;4.494;2023-06-22T05:35:40;15.00;;;12.13;;
16320;SDS011;8269;50.990;4.494;2023-06-22T05:38:06;23.60;;;13.95;;
16320;SDS011;8269;50.990;4.494;2023-06-22T05:40:32;17.02;;;13.95;;
16320;SDS011;8269;50.990;4.494;2023-06-22T05:42:58;17.05;;;14.70;;
16320;SDS011;8269;50.990;4.494;2023-06-22T05:45:25;17.70;;;13.65;;
16320;SDS011;8269;50.990;4.494;2023-06-22T05:47:51;18.85;;;13.52;;
16320;SDS011;8269;50.990;4.494;2023-06-22T05:50:16;16.33;;;13.40;;
16320;SDS011;8269;50.990;4.494;2023-06-22T05:52:42;15.90;;;14.20;;
16320;SDS011;8269;50.990;4.494;2023-06-22T05:55:08;18.80;;;14.88;;
16320;SDS011;8269;50.990;4.494;2023-06-22T05:57:34;19.42;;;14.25;;
16320;SDS011;8269;50.990;4.494;2023-06-22T05:59:59;16.23;;;14.52;;
16320;SDS011;8269;50.990;4.494;2023-06-22T06:02:25;15.45;;;13.85;;
16320;SDS011;8269;50.990;4.494;2023-06-22T06:04:50;18.48;;;14.90;;
16320;SDS011;8269;50.990;4.494;2023-06-22T06:07:17;15.23;;;13.60;;
16320;SDS011;8269;50.990;4.494;2023-06-22T06:09:43;16.60;;;14.13;;
16320;SDS011;8269;50.990;4.494;2023-06-22T06:12:09;18.85;;;13.63;;
16320;SDS011;8269;50.990;4.494;2023-06-22T06:14:37;18.35;;;14.77;;
16320;SDS011;8269;50.990;4.494;2023-06-22T06:17:04;19.30;;;14.82;;
16320;SDS011;8269;50.990;4.494;2023-06-22T06:19:30;17.83;;;15.93;;
16320;SDS011;8269;50.990;4.494;2023-06-22T06:21:57;17.35;;;15.40;;
16320;SDS011;8269;50.990;4.494;2023-06-22T06:24:23;18.50;;;15.30;;
16320;SDS011;8269;50.990;4.494;2023-06-22T06:26:50;17.48;;;15.57;;
16320;SDS011;8269;50.990;4.494;2023-06-22T06:29:17;20.98;;;16.23;;
16320;SDS011;8269;50.990;4.494;2023-06-22T06:31:43;18.35;;;15.73;;
16320;SDS011;8269;50.990;4.494;2023-06-22T06:34:09;17.63;;;15.73;;
16320;SDS011;8269;50.990;4.494;2023-06-22T06:36:35;19.25;;;16.23;;
16320;SDS011;8269;50.990;4.494;2023-06-22T06:39:02;18.25;;;16.27;;
16320;SDS011;8269;50.990;4.494;2023-06-22T06:41:30;17.95;;;16.05;;
16320;SDS011;8269;50.990;4.494;2023-06-22T06:43:56;19.60;;;16.58;;
16320;SDS011;8269;50.990;4.494;2023-06-22T06:46:22;21.75;;;16.05;;
16320;SDS011;8269;50.990;4.494;2023-06-22T06:48:48;19.05;;;15.43;;
16320;SDS011;8269;50.990;4.494;2023-06-22T06:51:14;17.70;;;15.80;;
16320;SDS011;8269;50.990;4.494;2023-06-22T06:53:40;19.48;;;15.50;;
16320;SDS011;8269;50.990;4.494;2023-06-22T06:56:06;19.25;;;16.17;;
16320;SDS011;8269;50.990;4.494;2023-06-22T06:58:35;19.80;;;17.75;;
16320;SDS011;8269;50.990;4.494;2023-06-22T07:01:01;19.15;;;16.38;;
16320;SDS011;8269;50.990;4.494;2023-06-22T07:03:28;18.98;;;16.98;;
16320;SDS011;8269;50.990;4.494;2023-06-22T07:05:54;18.40;;;16.52;;
16320;SDS011;8269;50.990;4.494;2023-06-22T07:08:20;20.10;;;17.58;;
16320;SDS011;8269;50.990;4.494;2023-06-22T07:10:46;18.73;;;16.80;;
16320;SDS011;8269;50.990;4.494;2023-06-22T07:13:12;20.30;;;17.52;;
16320;SDS011;8269;50.990;4.494;2023-06-22T07:15:38;18.75;;;16.77;;
16320;SDS011;8269;50.990;4.494;2023-06-22T07:18:04;19.48;;;17.27;;
16320;SDS011;8269;50.990;4.494;2023-06-22T07:20:32;20.85;;;17.38;;
16320;SDS011;8269;50.990;4.494;2023-06-22T07:22:59;20.52;;;18.23;;
16320;SDS011;8269;50.990;4.494;2023-06-22T07:25:25;21.70;;;18.67;;
16320;SDS011;8269;50.990;4.494;2023-06-22T07:27:58;20.58;;;17.58;;
16320;SDS011;8269;50.990;4.494;2023-06-22T07:30:26;21.95;;;18.05;;
16320;SDS011;8269;50.990;4.494;2023-06-22T07:32:52;21.15;;;17.95;;
16320;SDS011;8269;50.990;4.494;2023-06-22T07:35:18;20.90;;;17.77;;
16320;SDS011;8269;50.990;4.494;2023-06-22T07:37:44;20.13;;;17.50;;
16320;SDS011;8269;50.990;4.494;2023-06-22T07:40:10;20.55;;;17.95;;
16320;SDS011;8269;50.990;4.494;2023-06-22T07:42:36;20.02;;;17.92;;
16320;SDS011;8269;50.990;4.494;2023-06-22T07:45:03;21.20;;;18.42;;
16320;SDS011;8269;50.990;4.494;2023-06-22T07:47:30;22.90;;;18.20;;
16320;SDS011;8269;50.990;4.494;2023-06-22T07:50:00;21.65;;;18.75;;
16320;SDS011;8269;50.990;4.494;2023-06-22T07:52:26;21.25;;;19.00;;
16320;SDS011;8269;50.990;4.494;2023-06-22T07:54:52;20.40;;;18.25;;
16320;SDS011;8269;50.990;4.494;2023-06-22T07:57:18;19.90;;;17.83;;
16320;SDS011;8269;50.990;4.494;2023-06-22T07:59:44;21.98;;;18.50;;
16320;SDS011;8269;50.990;4.494;2023-06-22T08:02:12;20.27;;;18.00;;
16320;SDS011;8269;50.990;4.494;2023-06-22T08:04:38;20.13;;;18.10;;
16320;SDS011;8269;50.990;4.494;2023-06-22T08:07:04;21.10;;;18.88;;
16320;SDS011;8269;50.990;4.494;2023-06-22T08:09:32;21.38;;;18.20;;
16320;SDS011;8269;50.990;4.494;2023-06-22T08:11:58;19.92;;;17.80;;
16320;SDS011;8269;50.990;4.494;2023-06-22T08:14:25;19.90;;;17.90;;
16320;SDS011;8269;50.990;4.494;2023-06-22T08:16:52;19.63;;;17.73;;
16320;SDS011;8269;50.990;4.494;2023-06-22T08:19:18;20.27;;;18.02;;
16320;SDS011;8269;50.990;4.494;2023-06-22T08:21:44;22.48;;;18.05;;
16320;SDS011;8269;50.990;4.494;2023-06-22T08:24:10;21.90;;;17.33;;
16320;SDS011;8269;50.990;4.494;2023-06-22T08:26:36;19.80;;;17.65;;
16320;SDS011;8269;50.990;4.494;2023-06-22T08:29:03;19.20;;;17.30;;
16320;SDS011;8269;50.990;4.494;2023-06-22T08:31:29;20.20;;;17.23;;
16320;SDS011;8269;50.990;4.494;2023-06-22T08:33:55;19.08;;;17.08;;
16320;SDS011;8269;50.990;4.494;2023-06-22T08:36:21;19.40;;;17.38;;
16320;SDS011;8269;50.990;4.494;2023-06-22T08:38:47;20.60;;;16.70;;
16320;SDS011;8269;50.990;4.494;2023-06-22T08:41:16;17.63;;;15.77;;
16320;SDS011;8269;50.990;4.494;2023-06-22T08:43:42;17.90;;;16.00;;
16320;SDS011;8269;50.990;4.494;2023-06-22T08:46:09;17.10;;;15.27;;
16320;SDS011;8269;50.990;4.494;2023-06-22T08:48:35;16.95;;;14.75;;
16320;SDS011;8269;50.990;4.494;2023-06-22T08:51:01;17.05;;;15.25;;
16320;SDS011;8269;50.990;4.494;2023-06-22T08:53:28;17.48;;;14.82;;
16320;SDS011;8269;50.990;4.494;2023-06-22T08:55:54;19.63;;;14.70;;
16320;SDS011;8269;50.990;4.494;2023-06-22T08:58:20;16.17;;;13.98;;
16320;SDS011;8269;50.990;4.494;2023-06-22T09:00:48;17.88;;;15.13;;
16320;SDS011;8269;50.990;4.494;2023-06-22T09:03:15;17.25;;;15.27;;
16320;SDS011;8269;50.990;4.494;2023-06-22T09:05:41;17.63;;;14.70;;
16320;SDS011;8269;50.990;4.494;2023-06-22T09:08:07;19.95;;;14.90;;
16320;SDS011;8269;50.990;4.494;2023-06-22T09:10:33;16.23;;;14.52;;
16320;SDS011;8269;50.990;4.494;2023-06-22T09:12:59;18.48;;;14.20;;
16320;SDS011;8269;50.990;4.494;2023-06-22T09:15:25;16.90;;;14.90;;
16320;SDS011;8269;50.990;4.494;2023-06-22T09:17:51;17.55;;;14.55;;
16320;SDS011;8269;50.990;4.494;2023-06-22T09:20:19;17.75;;;15.93;;
16320;SDS011;8269;50.990;4.494;2023-06-22T09:22:45;16.67;;;14.35;;
16320;SDS011;8269;50.990;4.494;2023-06-22T09:25:11;18.90;;;14.88;;
16320;SDS011;8269;50.990;4.494;2023-06-22T09:27:37;16.45;;;14.63;;
16320;SDS011;8269;50.990;4.494;2023-06-22T09:30:03;17.27;;;14.50;;
16320;SDS011;8269;50.990;4.494;2023-06-22T09:32:30;17.92;;;14.50;;
16320;SDS011;8269;50.990;4.494;2023-06-22T09:34:56;15.65;;;13.77;;
16320;SDS011;8269;50.990;4.494;2023-06-22T09:37:22;15.75;;;13.82;;
16320;SDS011;8269;50.990;4.494;2023-06-22T09:39:48;14.98;;;13.45;;
16320;SDS011;8269;50.990;4.494;2023-06-22T09:42:14;16.60;;;13.35;;
16320;SDS011;8269;50.990;4.494;2023-06-22T09:44:40;15.73;;;13.68;;
16320;SDS011;8269;50.990;4.494;2023-06-22T09:47:06;15.90;;;13.82;;
16320;SDS011;8269;50.990;4.494;2023-06-22T09:49:32;16.33;;;14.60;;
16320;SDS011;8269;50.990;4.494;2023-06-22T09:51:58;15.95;;;14.10;;
16320;SDS011;8269;50.990;4.494;2023-06-22T09:54:25;16.75;;;14.07;;
16320;SDS011;8269;50.990;4.494;2023-06-22T09:56:51;16.52;;;14.82;;
16320;SDS011;8269;50.990;4.494;2023-06-22T09:59:17;16.50;;;14.55;;
16320;SDS011;8269;50.990;4.494;2023-06-22T10:01:43;17.83;;;15.52;;
16320;SDS011;8269;50.990;4.494;2023-06-22T10:04:09;18.17;;;15.75;;
16320;SDS011;8269;50.990;4.494;2023-06-22T10:06:35;18.92;;;15.60;;
16320;SDS011;8269;50.990;4.494;2023-06-22T10:09:01;17.38;;;15.57;;
16320;SDS011;8269;50.990;4.494;2023-06-22T10:11:27;21.63;;;18.23;;
16320;SDS011;8269;50.990;4.494;2023-06-22T10:13:55;20.05;;;17.13;;
16320;SDS011;8269;50.990;4.494;2023-06-22T10:16:23;24.05;;;17.67;;
16320;SDS011;8269;50.990;4.494;2023-06-22T10:18:51;22.00;;;18.60;;
16320;SDS011;8269;50.990;4.494;2023-06-22T10:21:17;24.88;;;19.80;;
16320;SDS011;8269;50.990;4.494;2023-06-22T10:23:43;21.67;;;19.40;;
16320;SDS011;8269;50.990;4.494;2023-06-22T10:26:09;24.95;;;19.90;;
16320;SDS011;8269;50.990;4.494;2023-06-22T10:28:35;21.85;;;19.58;;
16320;SDS011;8269;50.990;4.494;2023-06-22T10:31:01;23.40;;;19.95;;
16320;SDS011;8269;50.990;4.494;2023-06-22T10:33:27;27.90;;;23.67;;
16320;SDS011;8269;50.990;4.494;2023-06-22T10:35:54;27.35;;;23.58;;
16320;SDS011;8269;50.990;4.494;2023-06-22T10:38:20;28.98;;;24.45;;
16320;SDS011;8269;50.990;4.494;2023-06-22T10:40:46;28.85;;;24.55;;
16320;SDS011;8269;50.990;4.494;2023-06-22T10:43:12;28.85;;;24.05;;
16320;SDS011;8269;50.990;4.494;2023-06-22T10:45:38;29.85;;;25.48;;
16320;SDS011;8269;50.990;4.494;2023-06-22T10:48:04;31.48;;;28.05;;
16320;SDS011;8269;50.990;4.494;2023-06-22T10:50:30;32.65;;;29.15;;
16320;SDS011;8269;50.990;4.494;2023-06-22T10:52:56;35.10;;;30.63;;
16320;SDS011;8269;50.990;4.494;2023-06-22T10:55:22;42.92;;;33.70;;
16320;SDS011;8269;50.990;4.494;2023-06-22T10:57:48;39.45;;;32.80;;
16320;SDS011;8269;50.990;4.494;2023-06-22T11:00:15;41.45;;;35.03;;
16320;SDS011;8269;50.990;4.494;2023-06-22T11:02:41;42.97;;;35.13;;
16320;SDS011;8269;50.990;4.494;2023-06-22T11:05:07;39.22;;;34.28;;
16320;SDS011;8269;50.990;4.494;2023-06-22T11:07:33;40.03;;;35.20;;
16320;SDS011;8269;50.990;4.494;2023-06-22T11:09:59;39.55;;;34.90;;
16320;SDS011;8269;50.990;4.494;2023-06-22T11:12:25;40.05;;;34.35;;
16320;SDS011;8269;50.990;4.494;2023-06-22T11:14:51;45.25;;;36.00;;
16320;SDS011;8269;50.990;4.494;2023-06-22T11:17:17;40.38;;;36.13;;
16320;SDS011;8269;50.990;4.494;2023-06-22T11:19:44;45.72;;;36.17;;
16320;SDS011;8269;50.990;4.494;2023-06-22T11:22:10;42.15;;;35.22;;
16320;SDS011;8269;50.990;4.494;2023-06-22T11:24:36;45.97;;;37.83;;
16320;SDS011;8269;50.990;4.494;2023-06-22T11:27:02;42.58;;;36.45;;
16320;SDS011;8269;50.990;4.494;2023-06-22T11:29:28;40.58;;;35.33;;
16320;SDS011;8269;50.990;4.494;2023-06-22T11:31:54;44.80;;;35.35;;
16320;SDS011;8269;50.990;4.494;2023-06-22T11:34:20;41.33;;;35.30;;
16320;SDS011;8269;50.990;4.494;2023-06-22T11:36:46;39.00;;;32.45;;
16320;SDS011;8269;50.990;4.494;2023-06-22T11:39:13;42.03;;;35.13;;
16320;SDS011;8269;50.990;4.494;2023-06-22T11:41:40;38.50;;;32.45;;
16320;SDS011;8269;50.990;4.494;2023-06-22T11:44:06;37.85;;;32.63;;
16320;SDS011;8269;50.990;4.494;2023-06-22T11:46:32;39.58;;;33.47;;
16320;SDS011;8269;50.990;4.494;2023-06-22T11:48:59;40.65;;;34.55;;
16320;SDS011;8269;50.990;4.494;2023-06-22T11:51:25;41.40;;;32.78;;
16320;SDS011;8269;50.990;4.494;2023-06-22T11:53:51;39.67;;;33.35;;
16320;SDS011;8269;50.990;4.494;2023-06-22T11:56:18;36.85;;;32.88;;
16320;SDS011;8269;50.990;4.494;2023-06-22T11:58:44;36.15;;;32.33;;
16320;SDS011;8269;50.990;4.494;2023-06-22T12:01:09;34.88;;;31.13;;
16320;SDS011;8269;50.990;4.494;2023-06-22T12:03:35;37.90;;;32.75;;
16320;SDS011;8269;50.990;4.494;2023-06-22T12:06:01;38.63;;;32.20;;
16320;SDS011;8269;50.990;4.494;2023-06-22T12:08:26;36.72;;;32.65;;
16320;SDS011;8269;50.990;4.494;2023-06-22T12:10:52;36.67;;;32.85;;
16320;SDS011;8269;50.990;4.494;2023-06-22T12:13:19;37.63;;;32.58;;
16320;SDS011;8269;50.990;4.494;2023-06-22T12:15:45;40.40;;;36.10;;
16320;SDS011;8269;50.990;4.494;2023-06-22T12:18:11;41.58;;;36.90;;
16320;SDS011;8269;50.990;4.494;2023-06-22T12:20:36;41.95;;;37.45;;
16320;SDS011;8269;50.990;4.494;2023-06-22T12:23:02;42.50;;;38.00;;
16320;SDS011;8269;50.990;4.494;2023-06-22T12:25:28;43.63;;;38.75;;
16320;SDS011;8269;50.990;4.494;2023-06-22T12:27:55;43.25;;;38.58;;
16320;SDS011;8269;50.990;4.494;2023-06-22T12:30:20;45.25;;;39.53;;
16320;SDS011;8269;50.990;4.494;2023-06-22T12:32:46;45.25;;;40.45;;
16320;SDS011;8269;50.990;4.494;2023-06-22T12:35:12;48.22;;;41.60;;
16320;SDS011;8269;50.990;4.494;2023-06-22T12:37:42;46.72;;;41.53;;
16320;SDS011;8269;50.990;4.494;2023-06-22T12:40:08;55.20;;;44.67;;
16320;SDS011;8269;50.990;4.494;2023-06-22T12:42:34;40.67;;;33.30;;
16320;SDS011;8269;50.990;4.494;2023-06-22T12:45:00;47.10;;;41.92;;
16320;SDS011;8269;50.990;4.494;2023-06-22T12:47:26;53.78;;;44.75;;
16320;SDS011;8269;50.990;4.494;2023-06-22T12:49:52;47.78;;;40.85;;
16320;SDS011;8269;50.990;4.494;2023-06-22T12:52:18;51.30;;;45.13;;
16320;SDS011;8269;50.990;4.494;2023-06-22T12:54:44;52.13;;;45.28;;
16320;SDS011;8269;50.990;4.494;2023-06-22T12:57:10;55.42;;;47.65;;
16320;SDS011;8269;50.990;4.494;2023-06-22T12:59:36;56.78;;;46.90;;
16320;SDS011;8269;50.990;4.494;2023-06-22T13:02:02;53.63;;;45.45;;
16320;SDS011;8269;50.990;4.494;2023-06-22T13:04:28;53.45;;;45.08;;
16320;SDS011;8269;50.990;4.494;2023-06-22T13:06:54;54.03;;;43.33;;
16320;SDS011;8269;50.990;4.494;2023-06-22T13:09:21;54.67;;;44.00;;
16320;SDS011;8269;50.990;4.494;2023-06-22T13:11:47;48.78;;;40.85;;
16320;SDS011;8269;50.990;4.494;2023-06-22T13:14:13;47.58;;;41.42;;
16320;SDS011;8269;50.990;4.494;2023-06-22T13:16:41;47.95;;;42.70;;
16320;SDS011;8269;50.990;4.494;2023-06-22T13:19:07;51.47;;;43.55;;
16320;SDS011;8269;50.990;4.494;2023-06-22T13:21:33;51.03;;;44.95;;
16320;SDS011;8269;50.990;4.494;2023-06-22T13:23:59;51.22;;;44.88;;
16320;SDS011;8269;50.990;4.494;2023-06-22T13:26:26;51.28;;;45.00;;
16320;SDS011;8269;50.990;4.494;2023-06-22T13:28:53;50.50;;;43.65;;
16320;SDS011;8269;50.990;4.494;2023-06-22T13:31:19;54.45;;;44.03;;
16320;SDS011;8269;50.990;4.494;2023-06-22T13:33:45;49.92;;;44.35;;
16320;SDS011;8269;50.990;4.494;2023-06-22T13:36:13;49.33;;;43.45;;
16320;SDS011;8269;50.990;4.494;2023-06-22T13:38:38;55.47;;;45.72;;
16320;SDS011;8269;50.990;4.494;2023-06-22T13:41:04;50.58;;;42.75;;
16320;SDS011;8269;50.990;4.494;2023-06-22T13:43:30;55.47;;;44.85;;
16320;SDS011;8269;50.990;4.494;2023-06-22T13:45:56;51.05;;;43.60;;
16320;SDS011;8269;50.990;4.494;2023-06-22T13:48:22;51.70;;;45.63;;
16320;SDS011;8269;50.990;4.494;2023-06-22T13:50:48;54.47;;;45.42;;
16320;SDS011;8269;50.990;4.494;2023-06-22T13:53:14;56.35;;;45.00;;
16320;SDS011;8269;50.990;4.494;2023-06-22T13:55:40;55.90;;;46.85;;
16320;SDS011;8269;50.990;4.494;2023-06-22T13:58:06;61.72;;;48.30;;
16320;SDS011;8269;50.990;4.494;2023-06-22T14:00:32;56.45;;;46.72;;
16320;SDS011;8269;50.990;4.494;2023-06-22T14:02:57;55.70;;;47.90;;
16320;SDS011;8269;50.990;4.494;2023-06-22T14:05:23;60.53;;;49.22;;
16320;SDS011;8269;50.990;4.494;2023-06-22T14:07:49;64.20;;;50.72;;
16320;SDS011;8269;50.990;4.494;2023-06-22T14:10:14;71.60;;;54.08;;
16320;SDS011;8269;50.990;4.494;2023-06-22T14:12:40;60.50;;;50.67;;
16320;SDS011;8269;50.990;4.494;2023-06-22T14:15:07;67.07;;;53.15;;
16320;SDS011;8269;50.990;4.494;2023-06-22T14:17:32;61.10;;;50.30;;
16320;SDS011;8269;50.990;4.494;2023-06-22T14:19:58;62.38;;;49.42;;
16320;SDS011;8269;50.990;4.494;2023-06-22T14:22:23;62.38;;;50.47;;
16320;SDS011;8269;50.990;4.494;2023-06-22T14:24:49;60.55;;;48.67;;
16320;SDS011;8269;50.990;4.494;2023-06-22T14:27:15;59.40;;;48.55;;
16320;SDS011;8269;50.990;4.494;2023-06-22T14:29:41;58.42;;;49.00;;
16320;SDS011;8269;50.990;4.494;2023-06-22T14:32:07;60.72;;;48.90;;
16320;SDS011;8269;50.990;4.494;2023-06-22T14:34:33;61.85;;;49.25;;
16320;SDS011;8269;50.990;4.494;2023-06-22T14:37:02;61.05;;;49.95;;
16320;SDS011;8269;50.990;4.494;2023-06-22T14:39:28;61.88;;;51.03;;
16320;SDS011;8269;50.990;4.494;2023-06-22T14:41:54;59.65;;;51.25;;
16320;SDS011;8269;50.990;4.494;2023-06-22T14:44:20;59.13;;;50.25;;
16320;SDS011;8269;50.990;4.494;2023-06-22T14:46:46;63.15;;;53.35;;
16320;SDS011;8269;50.990;4.494;2023-06-22T14:49:11;65.13;;;53.67;;